createdAt,value
2023-09-10T00:01:34.520Z,18.92
2023-09-10T00:04:03.424Z,18.84
2023-09-10T00:06:34.887Z,18.80
2023-09-10T00:09:04.508Z,18.81
2023-09-10T00:11:31.129Z,18.80
2023-09-10T00:13:57.819Z,18.77
2023-09-10T00:16:26.739Z,18.80
2023-09-10T00:18:55.776Z,18.79
2023-09-10T00:21:22.340Z,18.69
2023-09-10T00:23:53.633Z,18.69
2023-09-10T00:26:27.248Z,18.59
2023-09-10T00:28:57.018Z,18.62
2023-09-10T00:31:23.714Z,18.58
2023-09-10T00:33:52.665Z,18.62
2023-09-10T00:36:19.241Z,18.52
2023-09-10T00:38:45.911Z,18.49
2023-09-10T00:41:14.898Z,18.43
2023-09-10T00:43:41.502Z,18.36
2023-09-10T00:46:08.406Z,18.38
2023-09-10T00:48:38.307Z,18.26
2023-09-10T00:51:05.266Z,18.31
2023-09-10T00:53:32.464Z,18.28
2023-09-10T00:55:59.263Z,18.32
2023-09-10T00:58:31.250Z,18.36
2023-09-10T01:00:59.625Z,18.32
2023-09-10T01:03:33.748Z,18.29
2023-09-10T01:06:00.637Z,18.27
2023-09-10T01:08:27.477Z,18.20
2023-09-10T01:11:07.162Z,18.21
2023-09-10T01:14:01.550Z,18.20
2023-09-10T01:16:40.051Z,18.17
2023-09-10T01:19:27.361Z,18.19
2023-09-10T01:22:06.773Z,18.18
2023-09-10T01:24:52.515Z,18.05
2023-09-10T01:27:19.753Z,18.09
2023-09-10T01:29:48.615Z,18.12
2023-09-10T01:32:32.434Z,18.05
2023-09-10T01:35:20.011Z,18.06
2023-09-10T01:37:57.094Z,18.08
2023-09-10T01:40:31.761Z,18.10
2023-09-10T01:43:00.643Z,18.11
2023-09-10T01:45:28.054Z,18.06
2023-09-10T01:47:57.404Z,18.01
2023-09-10T01:50:24.392Z,17.95
2023-09-10T01:52:51.110Z,17.83
2023-09-10T01:55:17.834Z,17.90
2023-09-10T01:57:49.020Z,17.92
2023-09-10T02:00:16.019Z,17.92
2023-09-10T02:02:42.811Z,17.93
2023-09-10T02:05:09.610Z,17.93
2023-09-10T02:07:38.357Z,17.92
2023-09-10T02:10:07.734Z,17.74
2023-09-10T02:12:39.899Z,17.71
2023-09-10T02:15:08.410Z,17.73
2023-09-10T02:17:35.138Z,17.68
2023-09-10T02:20:10.945Z,17.70
2023-09-10T02:22:43.427Z,17.59
2023-09-10T02:25:10.337Z,17.59
2023-09-10T02:27:36.999Z,17.56
2023-09-10T02:30:09.592Z,17.58
2023-09-10T02:32:37.240Z,17.55
2023-09-10T02:35:04.624Z,17.49
2023-09-10T02:37:34.047Z,17.42
2023-09-10T02:40:03.068Z,17.48
2023-09-10T02:42:31.990Z,17.43
2023-09-10T02:45:00.860Z,17.50
2023-09-10T02:47:29.832Z,17.44
2023-09-10T02:49:56.814Z,17.42
2023-09-10T02:52:25.999Z,17.44
2023-09-10T02:54:55.078Z,17.42
2023-09-10T02:57:24.019Z,17.39
2023-09-10T02:59:50.610Z,17.34
2023-09-10T03:02:19.690Z,17.35
2023-09-10T03:04:46.436Z,17.32
2023-09-10T03:07:13.054Z,17.28
2023-09-10T03:09:42.607Z,17.26
2023-09-10T03:12:31.418Z,17.33
2023-09-10T03:14:58.104Z,17.37
2023-09-10T03:17:27.250Z,17.42
2023-09-10T03:19:56.451Z,17.39
2023-09-10T03:22:23.219Z,17.34
2023-09-10T03:24:52.232Z,17.34
2023-09-10T03:27:18.912Z,17.29
2023-09-10T03:29:48.424Z,17.28
2023-09-10T03:32:16.383Z,17.26
2023-09-10T03:34:45.010Z,17.24
2023-09-10T03:37:11.770Z,17.25
2023-09-10T03:39:43.288Z,17.25
2023-09-10T03:42:09.906Z,17.17
2023-09-10T03:44:36.566Z,17.13
2023-09-10T03:47:08.186Z,17.17
2023-09-10T03:49:34.859Z,17.09
2023-09-10T03:52:17.456Z,17.07
2023-09-10T03:54:46.488Z,17.05
2023-09-10T03:57:16.043Z,17.07
2023-09-10T03:59:42.813Z,16.98
2023-09-10T04:02:09.955Z,16.95
2023-09-10T04:04:38.842Z,16.95
2023-09-10T04:07:08.205Z,16.93
2023-09-10T04:09:37.215Z,16.92
2023-09-10T04:12:06.677Z,16.88
2023-09-10T04:14:35.762Z,16.87
2023-09-10T04:17:02.569Z,16.85
2023-09-10T04:19:31.390Z,16.85
2023-09-10T04:21:58.092Z,16.92
2023-09-10T04:24:27.029Z,16.97
2023-09-10T04:26:56.205Z,16.92
2023-09-10T04:29:26.066Z,16.88
2023-09-10T04:31:52.752Z,16.85
2023-09-10T04:34:19.455Z,16.93
2023-09-10T04:36:48.886Z,16.91
2023-09-10T04:39:20.632Z,16.83
2023-09-10T04:41:47.973Z,16.75
2023-09-10T04:44:16.978Z,16.73
2023-09-10T04:46:46.229Z,16.71
2023-09-10T04:49:13.112Z,16.71
2023-09-10T04:51:42.567Z,16.69
2023-09-10T04:54:11.478Z,16.69
2023-09-10T04:56:38.231Z,16.65
2023-09-10T04:59:04.875Z,16.62
2023-09-10T05:01:33.786Z,16.64
2023-09-10T05:04:00.490Z,16.67
2023-09-10T05:06:27.169Z,16.68
2023-09-10T05:08:53.787Z,16.74
2023-09-10T05:11:20.925Z,16.68
2023-09-10T05:13:50.130Z,16.77
2023-09-10T05:16:16.821Z,16.77
2023-09-10T05:18:48.946Z,16.81
2023-09-10T05:21:18.507Z,16.74
2023-09-10T05:23:45.078Z,16.72
2023-09-10T05:26:11.721Z,16.84
2023-09-10T05:28:38.623Z,16.91
2023-09-10T05:31:09.039Z,16.94
2023-09-10T05:33:40.238Z,16.94
2023-09-10T05:36:07.077Z,16.87
2023-09-10T05:38:33.685Z,16.84
2023-09-10T05:41:08.689Z,16.82
2023-09-10T05:43:37.762Z,16.78
2023-09-10T05:46:07.324Z,16.78
2023-09-10T05:48:34.661Z,16.80
2023-09-10T05:51:01.419Z,16.74
2023-09-10T05:53:28.858Z,16.71
2023-09-10T05:55:55.655Z,16.78
2023-09-10T05:58:25.751Z,16.92
2023-09-10T06:00:53.526Z,17.02
2023-09-10T06:03:20.334Z,17.12
2023-09-10T06:05:49.491Z,17.18
2023-09-10T06:08:18.410Z,17.29
2023-09-10T06:10:47.351Z,17.28
2023-09-10T06:13:16.591Z,17.23
2023-09-10T06:15:44.167Z,17.14
2023-09-10T06:18:14.280Z,17.03
2023-09-10T06:20:45.746Z,17.14
2023-09-10T06:23:12.466Z,17.23
2023-09-10T06:25:39.217Z,17.35
2023-09-10T06:28:09.059Z,17.54
2023-09-10T06:30:35.643Z,17.56
2023-09-10T06:33:06.887Z,17.56
2023-09-10T06:35:35.389Z,17.73
2023-09-10T06:38:02.213Z,17.81
2023-09-10T06:40:31.778Z,17.86
2023-09-10T06:42:58.357Z,17.84
2023-09-10T06:45:27.164Z,17.95
2023-09-10T06:47:54.001Z,17.94
2023-09-10T06:50:23.179Z,18.09
2023-09-10T06:52:49.853Z,18.14
2023-09-10T06:55:18.764Z,18.23
2023-09-10T06:57:48.388Z,18.31
2023-09-10T07:00:15.198Z,18.61
2023-09-10T07:02:44.037Z,18.79
2023-09-10T07:05:11.238Z,18.91
2023-09-10T07:07:38.024Z,19.10
2023-09-10T07:10:04.805Z,19.34
2023-09-10T07:12:31.475Z,19.67
2023-09-10T07:15:00.298Z,19.75
2023-09-10T07:17:26.969Z,19.88
2023-09-10T07:19:56.039Z,19.90
2023-09-10T07:22:23.023Z,20.21
2023-09-10T07:24:49.590Z,20.30
2023-09-10T07:27:20.915Z,20.40
2023-09-10T07:29:49.785Z,20.52
2023-09-10T07:32:18.649Z,20.59
2023-09-10T07:34:45.333Z,20.83
2023-09-10T07:37:12.450Z,20.60
2023-09-10T07:39:39.175Z,20.73
2023-09-10T07:42:05.834Z,20.89
2023-09-10T07:44:35.054Z,21.11
2023-09-10T07:47:03.909Z,21.23
2023-09-10T07:49:33.112Z,21.29
2023-09-10T07:51:59.691Z,21.66
2023-09-10T07:54:26.309Z,21.77
2023-09-10T07:56:52.891Z,21.85
2023-09-10T07:59:19.562Z,21.87
2023-09-10T08:01:48.818Z,22.00
2023-09-10T08:04:18.260Z,22.41
2023-09-10T08:06:45.218Z,22.39
2023-09-10T08:09:14.893Z,22.69
2023-09-10T08:11:43.944Z,22.81
2023-09-10T08:14:15.365Z,23.04
2023-09-10T08:16:42.059Z,22.86
2023-09-10T08:19:08.695Z,23.08
2023-09-10T08:21:35.328Z,22.74
2023-09-10T08:24:04.620Z,22.80
2023-09-10T08:26:33.671Z,22.89
2023-09-10T08:29:02.549Z,22.99
2023-09-10T08:31:31.476Z,23.41
2023-09-10T08:34:02.734Z,23.50
2023-09-10T08:36:31.917Z,23.28
2023-09-10T08:39:01.843Z,23.66
2023-09-10T08:41:57.049Z,23.80
2023-09-10T08:44:27.896Z,23.93
2023-09-10T08:47:01.735Z,23.81
2023-09-10T08:49:30.560Z,23.96
2023-09-10T08:52:00.074Z,24.07
2023-09-10T08:54:26.955Z,23.89
2023-09-10T08:56:55.603Z,24.01
2023-09-10T08:59:25.329Z,24.00
2023-09-10T09:01:52.507Z,24.28
2023-09-10T09:04:21.900Z,24.39
2023-09-10T09:06:56.468Z,24.40
2023-09-10T09:09:27.444Z,24.29
2023-09-10T09:11:57.545Z,24.61
2023-09-10T09:14:30.486Z,24.77
2023-09-10T09:16:59.577Z,24.39
2023-09-10T09:19:31.427Z,24.57
2023-09-10T09:22:02.659Z,24.80
2023-09-10T09:24:32.550Z,24.88
2023-09-10T09:27:00.916Z,24.87
2023-09-10T09:29:29.888Z,25.00
2023-09-10T09:31:56.544Z,25.04
2023-09-10T09:34:26.067Z,25.14
2023-09-10T09:36:55.457Z,25.11
2023-09-10T09:39:22.437Z,25.38
2023-09-10T09:41:54.302Z,25.47
2023-09-10T09:44:23.432Z,25.51
2023-09-10T09:46:53.256Z,25.51
2023-09-10T09:49:19.900Z,25.57
2023-09-10T09:51:46.541Z,25.52
2023-09-10T09:54:13.234Z,25.76
2023-09-10T09:56:43.926Z,25.64
2023-09-10T09:59:13.787Z,25.98
2023-09-10T10:01:40.817Z,25.94
2023-09-10T10:04:08.195Z,26.02
2023-09-10T10:06:48.671Z,26.15
2023-09-10T10:09:19.677Z,26.42
2023-09-10T10:11:49.284Z,26.28
2023-09-10T10:14:16.815Z,26.43
2023-09-10T10:16:51.050Z,26.37
2023-09-10T10:19:18.696Z,26.53
2023-09-10T10:21:48.585Z,26.78
2023-09-10T10:24:16.635Z,26.74
2023-09-10T10:26:47.391Z,26.99
2023-09-10T10:29:20.642Z,27.16
2023-09-10T10:31:53.456Z,27.15
2023-09-10T10:34:24.417Z,27.23
2023-09-10T10:37:23.506Z,27.11
2023-09-10T10:40:14.912Z,27.27
2023-09-10T10:42:52.074Z,27.29
2023-09-10T10:45:21.629Z,27.40
2023-09-10T10:47:52.954Z,27.56
2023-09-10T10:50:28.770Z,27.76
2023-09-10T10:53:12.487Z,27.68
2023-09-10T10:55:42.757Z,27.68
2023-09-10T10:58:09.516Z,27.53
2023-09-10T11:00:36.211Z,27.83
2023-09-10T11:03:17.278Z,27.95
2023-09-10T11:05:53.784Z,27.95
2023-09-10T11:08:39.912Z,28.06
2023-09-10T11:11:29.214Z,27.89
2023-09-10T11:14:04.095Z,28.17
2023-09-10T11:16:44.099Z,28.18
2023-09-10T11:19:46.584Z,28.16
2023-09-10T11:22:13.453Z,28.17
2023-09-10T11:24:41.680Z,28.17
2023-09-10T11:27:23.700Z,28.22
2023-09-10T11:30:11.340Z,28.35
2023-09-10T11:32:43.518Z,28.36
2023-09-10T11:35:23.327Z,28.17
2023-09-10T11:37:52.135Z,28.13
2023-09-10T11:40:20.381Z,28.16
2023-09-10T11:42:48.726Z,28.28
2023-09-10T11:45:16.460Z,28.33
2023-09-10T11:47:47.684Z,28.55
2023-09-10T11:50:20.333Z,28.65
2023-09-10T11:52:47.067Z,28.61
2023-09-10T11:55:13.770Z,28.67
2023-09-10T11:57:43.189Z,28.71
2023-09-10T12:00:17.813Z,28.80
2023-09-10T12:02:46.620Z,28.82
2023-09-10T12:05:13.640Z,28.88
2023-09-10T12:07:45.194Z,28.77
2023-09-10T12:10:13.765Z,28.71
2023-09-10T12:12:44.617Z,28.84
2023-09-10T12:15:14.240Z,28.98
2023-09-10T12:17:41.558Z,28.81
2023-09-10T12:20:09.557Z,29.09
2023-09-10T12:22:36.393Z,28.98
2023-09-10T12:25:06.318Z,29.08
2023-09-10T12:27:38.929Z,29.25
2023-09-10T12:30:06.664Z,29.15
2023-09-10T12:32:38.352Z,29.27
2023-09-10T12:35:05.498Z,29.48
2023-09-10T12:37:32.534Z,29.31
2023-09-10T12:40:05.883Z,29.22
2023-09-10T12:42:34.936Z,29.21
2023-09-10T12:45:03.857Z,29.39
2023-09-10T12:47:30.742Z,29.38
2023-09-10T12:49:59.764Z,29.50
2023-09-10T12:52:29.667Z,29.51
2023-09-10T12:54:56.346Z,29.29
2023-09-10T12:57:22.920Z,29.42
2023-09-10T12:59:58.962Z,29.43
2023-09-10T13:02:27.265Z,29.48
2023-09-10T13:04:54.731Z,29.79
2023-09-10T13:07:21.472Z,29.83
2023-09-10T13:09:53.135Z,29.85
2023-09-10T13:12:26.036Z,29.96
2023-09-10T13:14:52.763Z,29.80
2023-09-10T13:17:19.524Z,29.80
2023-09-10T13:19:48.628Z,29.74
2023-09-10T13:22:15.325Z,29.73
2023-09-10T13:24:42.417Z,29.82
2023-09-10T13:27:09.073Z,30.06
2023-09-10T13:29:35.874Z,29.97
2023-09-10T13:32:02.579Z,30.04
2023-09-10T13:34:32.732Z,29.96
2023-09-10T13:37:04.566Z,29.89
2023-09-10T13:39:33.369Z,29.97
2023-09-10T13:41:59.987Z,29.98
2023-09-10T13:44:26.599Z,29.69
2023-09-10T13:46:53.444Z,29.67
2023-09-10T13:49:20.262Z,29.80
2023-09-10T13:51:49.196Z,29.66
2023-09-10T13:54:15.890Z,29.80
2023-09-10T13:56:44.871Z,29.88
2023-09-10T13:59:18.972Z,29.76
2023-09-10T14:01:47.629Z,29.99
2023-09-10T14:04:20.717Z,30.12
2023-09-10T14:06:52.116Z,30.10
2023-09-10T14:09:21.228Z,30.16
2023-09-10T14:11:47.877Z,30.12
2023-09-10T14:14:16.993Z,30.15
2023-09-10T14:16:43.918Z,29.86
2023-09-10T14:19:10.772Z,30.07
2023-09-10T14:21:39.452Z,30.17
2023-09-10T14:24:06.381Z,30.32
2023-09-10T14:26:37.870Z,30.22
2023-09-10T14:29:07.038Z,30.17
2023-09-10T14:31:36.098Z,30.22
2023-09-10T14:34:05.837Z,30.16
2023-09-10T14:36:32.498Z,30.16
2023-09-10T14:39:03.427Z,30.46
2023-09-10T14:41:32.401Z,30.39
2023-09-10T14:43:59.151Z,30.47
2023-09-10T14:46:25.903Z,30.49
2023-09-10T14:48:52.542Z,30.64
2023-09-10T14:51:21.462Z,30.54
2023-09-10T14:53:52.843Z,30.47
2023-09-10T14:56:19.511Z,30.53
2023-09-10T14:58:46.119Z,30.42
2023-09-10T15:01:15.879Z,30.37
2023-09-10T15:03:42.922Z,30.38
2023-09-10T15:06:12.155Z,30.34
2023-09-10T15:08:38.843Z,30.45
2023-09-10T15:11:05.546Z,30.48
2023-09-10T15:13:32.574Z,30.22
2023-09-10T15:15:59.317Z,30.26
2023-09-10T15:18:26.142Z,30.19
2023-09-10T15:20:52.779Z,30.17
2023-09-10T15:23:21.952Z,30.24
2023-09-10T15:25:49.196Z,30.38
2023-09-10T15:28:18.299Z,30.46
2023-09-10T15:30:44.945Z,30.20
2023-09-10T15:33:13.835Z,30.34
2023-09-10T15:35:43.394Z,30.40
2023-09-10T15:38:12.258Z,30.23
2023-09-10T15:40:43.611Z,30.34
2023-09-10T15:43:10.207Z,30.37
2023-09-10T15:45:42.177Z,30.41
2023-09-10T15:48:08.840Z,30.45
2023-09-10T15:50:35.705Z,30.25
2023-09-10T15:53:02.632Z,30.15
2023-09-10T15:55:31.963Z,29.88
2023-09-10T15:57:58.571Z,29.99
2023-09-10T16:00:30.027Z,29.94
2023-09-10T16:02:59.953Z,30.02
2023-09-10T16:05:27.077Z,29.87
2023-09-10T16:07:53.745Z,29.87
2023-09-10T16:10:21.810Z,29.85
2023-09-10T16:12:50.908Z,29.78
2023-09-10T16:15:22.487Z,29.74
2023-09-10T16:17:52.150Z,29.69
2023-09-10T16:20:18.856Z,29.65
2023-09-10T16:22:45.644Z,29.62
2023-09-10T16:25:12.554Z,29.56
2023-09-10T16:27:44.046Z,29.51
2023-09-10T16:30:14.071Z,29.43
2023-09-10T16:32:41.717Z,29.38
2023-09-10T16:35:11.277Z,29.33
2023-09-10T16:37:39.149Z,29.21
2023-09-10T16:40:06.671Z,29.05
2023-09-10T16:42:35.880Z,28.96
2023-09-10T16:45:02.616Z,28.94
2023-09-10T16:47:29.314Z,28.88
2023-09-10T16:49:58.572Z,28.78
2023-09-10T16:52:25.201Z,28.68
2023-09-10T16:54:51.822Z,28.65
2023-09-10T16:57:18.443Z,28.49
2023-09-10T16:59:48.627Z,28.33
2023-09-10T17:02:15.756Z,28.24
2023-09-10T17:04:44.813Z,28.16
2023-09-10T17:07:11.757Z,28.03
2023-09-10T17:09:40.847Z,27.88
2023-09-10T17:12:09.977Z,27.76
2023-09-10T17:14:36.727Z,27.60
2023-09-10T17:17:03.762Z,27.42
2023-09-10T17:19:31.024Z,27.30
2023-09-10T17:21:57.602Z,27.05
2023-09-10T17:24:26.414Z,26.91
2023-09-10T17:26:55.426Z,26.79
2023-09-10T17:29:24.470Z,26.60
2023-09-10T17:31:51.569Z,26.44
2023-09-10T17:34:18.199Z,26.31
2023-09-10T17:36:47.009Z,26.16
2023-09-10T17:39:13.607Z,26.00
2023-09-10T17:41:41.473Z,26.14
2023-09-10T17:44:10.429Z,26.24
2023-09-10T17:46:37.164Z,25.88
2023-09-10T17:49:04.105Z,25.73
2023-09-10T17:51:30.775Z,25.64
2023-09-10T17:53:57.457Z,25.40
2023-09-10T17:56:24.284Z,25.32
2023-09-10T17:58:53.349Z,25.23
2023-09-10T18:01:20.037Z,25.01
2023-09-10T18:03:46.898Z,25.02
2023-09-10T18:06:16.057Z,24.93
2023-09-10T18:08:42.653Z,24.81
2023-09-10T18:11:09.328Z,24.67
2023-09-10T18:13:41.892Z,24.52
2023-09-10T18:16:09.670Z,24.48
2023-09-10T18:18:38.530Z,24.29
2023-09-10T18:21:09.672Z,24.19
2023-09-10T18:23:37.768Z,24.06
2023-09-10T18:26:06.180Z,24.06
2023-09-10T18:28:32.783Z,24.13
2023-09-10T18:31:04.310Z,24.14
2023-09-10T18:33:33.918Z,24.06
2023-09-10T18:36:03.345Z,23.91
2023-09-10T18:38:30.620Z,23.89
2023-09-10T18:40:57.320Z,23.79
2023-09-10T18:43:23.919Z,23.77
2023-09-10T18:45:55.067Z,23.70
2023-09-10T18:48:24.668Z,23.58
2023-09-10T18:50:51.522Z,23.46
2023-09-10T18:53:21.616Z,23.41
2023-09-10T18:55:48.415Z,23.40
2023-09-10T18:58:14.989Z,23.42
2023-09-10T19:00:46.476Z,23.45
2023-09-10T19:03:13.266Z,23.43
2023-09-10T19:05:43.727Z,23.48
2023-09-10T19:08:13.120Z,23.37
2023-09-10T19:10:39.786Z,23.31
2023-09-10T19:13:06.799Z,23.21
2023-09-10T19:15:41.784Z,23.23
2023-09-10T19:18:08.559Z,23.17
2023-09-10T19:20:35.471Z,23.05
2023-09-10T19:23:02.160Z,22.95
2023-09-10T19:25:33.734Z,22.88
2023-09-10T19:28:01.803Z,22.79
2023-09-10T19:30:29.578Z,22.70
2023-09-10T19:32:56.280Z,22.68
2023-09-10T19:35:23.674Z,22.69
2023-09-10T19:37:53.757Z,22.80
2023-09-10T19:40:25.710Z,22.73
2023-09-10T19:42:52.541Z,22.65
2023-09-10T19:45:19.578Z,22.60
2023-09-10T19:47:48.836Z,22.65
2023-09-10T19:50:18.025Z,22.64
2023-09-10T19:52:44.640Z,22.44
2023-09-10T19:55:11.885Z,22.39
2023-09-10T19:57:43.418Z,22.42
2023-09-10T20:00:10.710Z,22.48
2023-09-10T20:02:42.385Z,22.44
2023-09-10T20:05:10.826Z,22.38
2023-09-10T20:07:42.085Z,22.28
2023-09-10T20:10:09.786Z,22.25
2023-09-10T20:12:38.856Z,22.20
2023-09-10T20:15:10.208Z,22.11
2023-09-10T20:17:36.902Z,22.01
2023-09-10T20:20:06.031Z,21.95
2023-09-10T20:22:32.663Z,21.95
2023-09-10T20:24:59.348Z,21.88
2023-09-10T20:27:29.114Z,21.77
2023-09-10T20:30:00.525Z,21.71
2023-09-10T20:32:29.527Z,21.65
2023-09-10T20:34:56.251Z,21.70
2023-09-10T20:37:25.157Z,21.70
2023-09-10T20:39:57.868Z,21.67
2023-09-10T20:42:28.308Z,21.58
2023-09-10T20:44:57.566Z,21.52
2023-09-10T20:47:27.199Z,21.41
2023-09-10T20:49:58.485Z,21.33
2023-09-10T20:52:29.248Z,21.27
2023-09-10T20:54:58.493Z,21.17
2023-09-10T20:57:29.848Z,21.11
2023-09-10T20:59:59.061Z,21.03
2023-09-10T21:02:26.119Z,21.02
2023-09-10T21:04:52.880Z,21.07
2023-09-10T21:07:19.893Z,21.03
2023-09-10T21:09:47.024Z,20.98
2023-09-10T21:12:13.708Z,20.95
2023-09-10T21:14:45.445Z,20.92
2023-09-10T21:17:19.242Z,20.93
2023-09-10T21:19:49.094Z,20.83
2023-09-10T21:22:15.703Z,20.73
2023-09-10T21:24:44.625Z,20.72
2023-09-10T21:27:11.285Z,20.75
2023-09-10T21:29:40.629Z,20.77
2023-09-10T21:32:09.790Z,20.77
2023-09-10T21:34:36.450Z,20.73
2023-09-10T21:37:03.509Z,20.65
2023-09-10T21:39:35.208Z,20.62
2023-09-10T21:42:04.368Z,20.49
2023-09-10T21:44:33.306Z,20.49
2023-09-10T21:47:00.424Z,20.43
2023-09-10T21:49:27.062Z,20.42
2023-09-10T21:51:57.149Z,20.39
2023-09-10T21:54:27.282Z,20.36
2023-09-10T21:56:54.092Z,20.25
2023-09-10T21:59:23.113Z,20.16
2023-09-10T22:01:51.843Z,20.07
2023-09-10T22:04:21.110Z,20.05
2023-09-10T22:06:47.932Z,20.09
2023-09-10T22:09:14.480Z,20.02
2023-09-10T22:11:41.165Z,19.97
2023-09-10T22:14:12.616Z,19.96
2023-09-10T22:16:42.280Z,19.89
2023-09-10T22:19:10.281Z,19.90
2023-09-10T22:21:36.980Z,19.92
2023-09-10T22:24:05.953Z,19.90
2023-09-10T22:26:34.902Z,19.83
2023-09-10T22:29:01.492Z,19.83
2023-09-10T22:31:28.258Z,19.85
2023-09-10T22:33:54.940Z,19.84
2023-09-10T22:36:35.134Z,19.78
2023-09-10T22:39:08.728Z,19.63
2023-09-10T22:41:35.725Z,19.62
2023-09-10T22:44:04.893Z,19.60
2023-09-10T22:46:31.678Z,19.66
2023-09-10T22:49:00.636Z,19.61
2023-09-10T22:51:29.780Z,19.62
2023-09-10T22:53:58.642Z,19.62
2023-09-10T22:56:26.271Z,19.60
2023-09-10T22:58:53.065Z,19.47
2023-09-10T23:01:21.763Z,19.45
2023-09-10T23:03:52.111Z,19.47
2023-09-10T23:06:21.449Z,19.35
2023-09-10T23:08:50.616Z,19.14
2023-09-10T23:11:19.450Z,19.03
2023-09-10T23:13:48.522Z,18.96
2023-09-10T23:16:15.178Z,18.90
2023-09-10T23:18:44.122Z,18.78
2023-09-10T23:21:15.675Z,18.62
2023-09-10T23:23:44.206Z,18.31
2023-09-10T23:26:11.031Z,18.35
2023-09-10T23:28:42.759Z,18.57
2023-09-10T23:31:09.731Z,18.67
2023-09-10T23:33:39.056Z,18.69
2023-09-10T23:36:08.248Z,18.67
2023-09-10T23:38:39.723Z,18.66
2023-09-10T23:41:09.471Z,18.68
2023-09-10T23:43:38.688Z,18.72
2023-09-10T23:46:06.335Z,18.76
2023-09-10T23:48:35.405Z,18.66
2023-09-10T23:51:06.280Z,18.62
2023-09-10T23:53:33.006Z,18.58
2023-09-10T23:55:59.673Z,18.62
2023-09-10T23:58:26.341Z,18.62
